DLH613 UBBB-EDDF
Flight info
| Callsign | DLH613 |
|---|---|
| Flight time | N/A |
| Altitude | 34000 |
| Route | N0431F280 RASAM2A RASAM N199 LUSAL/N0458F340 N319 ADEKI N644 LAGAS DCT SARPI/N0460F360 UM10 GOKPA UL746 ODERO DCT OPT DCT IRLOX DCT EMPOS DCT NEPOT DCT DEGET DCT PUSTA/N0446F380 DCT ARSIN DCT SITNI DCT SUBEN T161 DEBHI |
| Aircraft | A320/M-SDE3FGHIRWY/LB1 |
Departure
| Time | 2025-09-06 06:17 |
|---|---|
| Airport | Heydar Aliyev International Airport (UBBB) |
Arrival
| Time | N/A |
|---|---|
| Airport | Frankfurt Main Airport (EDDF) |
| Time | Latitude | Longitude | Altitude | Speed | Heading |
|---|---|---|---|---|---|
| 2025-09-06 05:28 | 40.46683 | 50.05321 | 15 ft | 0 kts | 230° |
| 2025-09-06 06:03 | 40.46696 | 50.05340 | 15 ft | 3 kts | 227° |
| 2025-09-06 06:04 | 40.46719 | 50.05383 | 16 ft | 3 kts | 237° |
| 2025-09-06 06:04 | 40.46730 | 50.05405 | 16 ft | 3 kts | 237° |
| 2025-09-06 06:05 | 40.46747 | 50.05442 | 15 ft | 0 kts | 244° |
| 2025-09-06 06:07 | 40.46745 | 50.05438 | 16 ft | 2 kts | 246° |
| 2025-09-06 06:08 | 40.46803 | 50.05393 | 15 ft | 8 kts | 350° |
| 2025-09-06 06:08 | 40.46904 | 50.05388 | 15 ft | 6 kts | 3° |
| 2025-09-06 06:09 | 40.46933 | 50.05550 | 15 ft | 12 kts | 88° |
| 2025-09-06 06:09 | 40.46940 | 50.05796 | 15 ft | 14 kts | 88° |
| 2025-09-06 06:10 | 40.46934 | 50.06079 | 17 ft | 8 kts | 138° |
| 2025-09-06 06:11 | 40.46785 | 50.06093 | 14 ft | 16 kts | 179° |
| 2025-09-06 06:11 | 40.46668 | 50.06094 | 14 ft | 16 kts | 179° |
| 2025-09-06 06:12 | 40.46358 | 50.06099 | 14 ft | 17 kts | 179° |
| 2025-09-06 06:12 | 40.46231 | 50.06102 | 14 ft | 20 kts | 179° |
| 2025-09-06 06:12 | 40.45926 | 50.06104 | 14 ft | 23 kts | 179° |
| 2025-09-06 06:13 | 40.45736 | 50.06108 | 14 ft | 9 kts | 179° |
| 2025-09-06 06:13 | 40.45651 | 50.06184 | 13 ft | 10 kts | 92° |
| 2025-09-06 06:14 | 40.45735 | 50.06323 | 10 ft | 0 kts | 359° |
| 2025-09-06 06:15 | 40.45922 | 50.06321 | 10 ft | 62 kts | 359° |
| 2025-09-06 06:15 | 40.46575 | 50.06313 | 14 ft | 123 kts | 359° |
| 2025-09-06 06:15 | 40.48783 | 50.06273 | 644 ft | 169 kts | 358° |
| 2025-09-06 06:16 | 40.51156 | 50.05827 | 1754 ft | 176 kts | 350° |
| 2025-09-06 06:16 | 40.53576 | 50.05191 | 2849 ft | 178 kts | 348° |
| 2025-09-06 06:17 | 40.56122 | 50.04529 | 3525 ft | 203 kts | 348° |
| 2025-09-06 06:17 | 40.59146 | 50.03490 | 3889 ft | 247 kts | 328° |
| 2025-09-06 06:18 | 40.61576 | 49.97379 | 5405 ft | 284 kts | 270° |
| 2025-09-06 06:19 | 40.61636 | 49.91928 | 6404 ft | 309 kts | 270° |
| 2025-09-06 06:19 | 40.61705 | 49.86183 | 7795 ft | 317 kts | 270° |
| 2025-09-06 06:20 | 40.61781 | 49.80325 | 9248 ft | 324 kts | 270° |
| 2025-09-06 06:20 | 40.61844 | 49.74335 | 10570 ft | 330 kts | 270° |
| 2025-09-06 06:21 | 40.61801 | 49.68286 | 11980 ft | 331 kts | 269° |
| 2025-09-06 06:21 | 40.61763 | 49.65249 | 12642 ft | 333 kts | 269° |
| 2025-09-06 06:21 | 40.61689 | 49.59120 | 13921 ft | 337 kts | 269° |
| 2025-09-06 06:22 | 40.61594 | 49.49770 | 15547 ft | 345 kts | 269° |
| 2025-09-06 06:23 | 40.61526 | 49.43392 | 16554 ft | 352 kts | 269° |
| 2025-09-06 06:23 | 40.61455 | 49.36886 | 17560 ft | 358 kts | 269° |
| 2025-09-06 06:24 | 40.61379 | 49.30220 | 18497 ft | 366 kts | 269° |
| 2025-09-06 06:24 | 40.61299 | 49.23490 | 19380 ft | 369 kts | 269° |
| 2025-09-06 06:25 | 40.61211 | 49.16711 | 20300 ft | 372 kts | 269° |
| 2025-09-06 06:25 | 40.61152 | 49.13310 | 20767 ft | 373 kts | 269° |
| 2025-09-06 06:25 | 40.61011 | 49.06465 | 21655 ft | 375 kts | 269° |
| 2025-09-06 06:26 | 40.60807 | 48.96124 | 22933 ft | 379 kts | 269° |
| 2025-09-06 06:27 | 40.60667 | 48.89160 | 23702 ft | 382 kts | 269° |
| 2025-09-06 06:27 | 40.60591 | 48.85658 | 24017 ft | 384 kts | 269° |
| 2025-09-06 06:28 | 40.60369 | 48.75072 | 24991 ft | 388 kts | 269° |
| 2025-09-06 06:29 | 40.60045 | 48.60803 | 26254 ft | 393 kts | 269° |
| 2025-09-06 06:31 | 40.59343 | 48.31606 | 28580 ft | 405 kts | 268° |
| 2025-09-06 06:32 | 40.58626 | 48.05309 | 30347 ft | 414 kts | 268° |
| 2025-09-06 06:35 | 40.70018 | 47.75697 | 32860 ft | 418 kts | 304° |
| 2025-09-06 06:36 | 40.82553 | 47.54801 | 34083 ft | 409 kts | 303° |
| 2025-09-06 06:39 | 40.98443 | 47.28117 | 34096 ft | 410 kts | 303° |
| 2025-09-06 06:40 | 41.10743 | 47.07297 | 34106 ft | 410 kts | 303° |
| 2025-09-06 06:43 | 41.25987 | 46.81312 | 34103 ft | 412 kts | 303° |
| 2025-09-06 06:44 | 41.32213 | 46.56916 | 34098 ft | 403 kts | 279° |
| 2025-09-06 06:47 | 41.36780 | 46.23853 | 34082 ft | 404 kts | 279° |
| 2025-09-06 06:48 | 41.40265 | 45.98069 | 34086 ft | 404 kts | 278° |
| 2025-09-06 06:50 | 41.44199 | 45.68507 | 34089 ft | 405 kts | 278° |
| 2025-09-06 06:52 | 41.48052 | 45.38836 | 34077 ft | 406 kts | 278° |
| 2025-09-06 06:54 | 41.50587 | 45.08923 | 34079 ft | 406 kts | 275° |